sensor_id;sensor_type;location;lat;lon;timestamp;P1;durP1;ratioP1;P2;durP2;ratioP2
11646;SDS011;5880;52.342;9.662;2023-04-01T00:00:30;1.87;;;1.20;;
11646;SDS011;5880;52.342;9.662;2023-04-01T00:02:56;1.97;;;1.10;;
11646;SDS011;5880;52.342;9.662;2023-04-01T00:05:21;2.63;;;1.43;;
11646;SDS011;5880;52.342;9.662;2023-04-01T00:07:49;2.70;;;1.23;;
11646;SDS011;5880;52.342;9.662;2023-04-01T00:10:16;1.13;;;0.90;;
11646;SDS011;5880;52.342;9.662;2023-04-01T00:12:41;2.27;;;1.30;;
11646;SDS011;5880;52.342;9.662;2023-04-01T00:15:08;2.40;;;1.17;;
11646;SDS011;5880;52.342;9.662;2023-04-01T00:17:36;1.73;;;1.23;;
11646;SDS011;5880;52.342;9.662;2023-04-01T00:20:02;1.73;;;1.00;;
11646;SDS011;5880;52.342;9.662;2023-04-01T00:22:29;2.43;;;1.53;;
11646;SDS011;5880;52.342;9.662;2023-04-01T00:24:55;3.60;;;1.57;;
11646;SDS011;5880;52.342;9.662;2023-04-01T00:27:21;2.50;;;1.30;;
11646;SDS011;5880;52.342;9.662;2023-04-01T00:29:47;1.77;;;1.00;;
11646;SDS011;5880;52.342;9.662;2023-04-01T00:32:13;1.13;;;0.90;;
11646;SDS011;5880;52.342;9.662;2023-04-01T00:34:39;2.77;;;1.10;;
11646;SDS011;5880;52.342;9.662;2023-04-01T00:37:06;1.00;;;0.90;;
11646;SDS011;5880;52.342;9.662;2023-04-01T00:39:33;1.97;;;1.00;;
11646;SDS011;5880;52.342;9.662;2023-04-01T00:42:01;1.37;;;0.80;;
11646;SDS011;5880;52.342;9.662;2023-04-01T00:44:33;1.37;;;0.90;;
11646;SDS011;5880;52.342;9.662;2023-04-01T00:47:00;0.80;;;0.70;;
11646;SDS011;5880;52.342;9.662;2023-04-01T00:49:27;1.63;;;0.90;;
11646;SDS011;5880;52.342;9.662;2023-04-01T00:52:04;1.20;;;0.80;;
11646;SDS011;5880;52.342;9.662;2023-04-01T00:54:33;1.80;;;0.77;;
11646;SDS011;5880;52.342;9.662;2023-04-01T00:57:02;1.00;;;0.83;;
11646;SDS011;5880;52.342;9.662;2023-04-01T00:59:43;0.83;;;0.70;;
11646;SDS011;5880;52.342;9.662;2023-04-01T01:02:13;0.40;;;0.40;;
11646;SDS011;5880;52.342;9.662;2023-04-01T01:04:41;1.70;;;0.70;;
11646;SDS011;5880;52.342;9.662;2023-04-01T01:10:47;1.63;;;0.80;;
11646;SDS011;5880;52.342;9.662;2023-04-01T01:18:24;1.77;;;0.80;;
11646;SDS011;5880;52.342;9.662;2023-04-01T01:26:55;1.43;;;0.70;;
11646;SDS011;5880;52.342;9.662;2023-04-01T01:32:48;1.60;;;0.73;;
11646;SDS011;5880;52.342;9.662;2023-04-01T01:35:46;0.77;;;0.60;;
11646;SDS011;5880;52.342;9.662;2023-04-01T01:38:21;0.60;;;0.47;;
11646;SDS011;5880;52.342;9.662;2023-04-01T01:40:52;0.60;;;0.60;;
11646;SDS011;5880;52.342;9.662;2023-04-01T01:43:25;1.57;;;0.90;;
11646;SDS011;5880;52.342;9.662;2023-04-01T01:45:57;0.63;;;0.50;;
11646;SDS011;5880;52.342;9.662;2023-04-01T01:48:30;1.30;;;0.70;;
11646;SDS011;5880;52.342;9.662;2023-04-01T01:50:57;1.20;;;0.80;;
11646;SDS011;5880;52.342;9.662;2023-04-01T01:53:25;1.07;;;0.90;;
11646;SDS011;5880;52.342;9.662;2023-04-01T01:55:51;1.37;;;0.90;;
11646;SDS011;5880;52.342;9.662;2023-04-01T01:58:22;1.90;;;0.70;;
11646;SDS011;5880;52.342;9.662;2023-04-01T02:01:13;1.33;;;0.60;;
11646;SDS011;5880;52.342;9.662;2023-04-01T02:03:44;0.87;;;0.63;;
11646;SDS011;5880;52.342;9.662;2023-04-01T02:06:13;1.60;;;0.77;;
11646;SDS011;5880;52.342;9.662;2023-04-01T02:08:49;0.73;;;0.50;;
11646;SDS011;5880;52.342;9.662;2023-04-01T02:11:23;0.97;;;0.50;;
11646;SDS011;5880;52.342;9.662;2023-04-01T02:14:10;0.63;;;0.53;;
11646;SDS011;5880;52.342;9.662;2023-04-01T02:17:21;1.43;;;0.70;;
11646;SDS011;5880;52.342;9.662;2023-04-01T02:19:52;1.03;;;0.63;;
11646;SDS011;5880;52.342;9.662;2023-04-01T02:22:25;1.43;;;0.73;;
11646;SDS011;5880;52.342;9.662;2023-04-01T02:24:58;0.93;;;0.70;;
11646;SDS011;5880;52.342;9.662;2023-04-01T02:27:29;1.27;;;0.60;;
11646;SDS011;5880;52.342;9.662;2023-04-01T02:29:56;1.60;;;0.70;;
11646;SDS011;5880;52.342;9.662;2023-04-01T02:32:22;3.47;;;1.00;;
11646;SDS011;5880;52.342;9.662;2023-04-01T02:34:50;0.77;;;0.60;;
11646;SDS011;5880;52.342;9.662;2023-04-01T02:37:16;0.77;;;0.60;;
11646;SDS011;5880;52.342;9.662;2023-04-01T02:39:43;2.07;;;0.60;;
11646;SDS011;5880;52.342;9.662;2023-04-01T02:42:12;1.60;;;0.60;;
11646;SDS011;5880;52.342;9.662;2023-04-01T02:44:39;1.10;;;0.60;;
11646;SDS011;5880;52.342;9.662;2023-04-01T02:47:05;0.70;;;0.60;;
11646;SDS011;5880;52.342;9.662;2023-04-01T02:49:30;2.33;;;0.50;;
11646;SDS011;5880;52.342;9.662;2023-04-01T02:51:56;0.53;;;0.40;;
11646;SDS011;5880;52.342;9.662;2023-04-01T02:54:22;1.20;;;0.60;;
11646;SDS011;5880;52.342;9.662;2023-04-01T02:56:47;0.83;;;0.50;;
11646;SDS011;5880;52.342;9.662;2023-04-01T02:59:13;0.70;;;0.60;;
11646;SDS011;5880;52.342;9.662;2023-04-01T03:01:39;1.07;;;0.60;;
11646;SDS011;5880;52.342;9.662;2023-04-01T03:04:04;0.87;;;0.43;;
11646;SDS011;5880;52.342;9.662;2023-04-01T03:06:30;0.97;;;0.67;;
11646;SDS011;5880;52.342;9.662;2023-04-01T03:08:56;1.23;;;0.50;;
11646;SDS011;5880;52.342;9.662;2023-04-01T03:11:22;0.30;;;0.30;;
11646;SDS011;5880;52.342;9.662;2023-04-01T03:13:47;2.10;;;0.50;;
11646;SDS011;5880;52.342;9.662;2023-04-01T03:16:13;1.07;;;0.40;;
11646;SDS011;5880;52.342;9.662;2023-04-01T03:18:39;3.70;;;0.60;;
11646;SDS011;5880;52.342;9.662;2023-04-01T03:21:12;0.67;;;0.50;;
11646;SDS011;5880;52.342;9.662;2023-04-01T03:23:44;1.40;;;0.50;;
11646;SDS011;5880;52.342;9.662;2023-04-01T03:26:10;1.33;;;0.70;;
11646;SDS011;5880;52.342;9.662;2023-04-01T03:28:35;2.00;;;0.53;;
11646;SDS011;5880;52.342;9.662;2023-04-01T03:31:01;0.37;;;0.37;;
11646;SDS011;5880;52.342;9.662;2023-04-01T03:33:27;1.27;;;0.50;;
11646;SDS011;5880;52.342;9.662;2023-04-01T03:35:53;1.20;;;0.37;;
11646;SDS011;5880;52.342;9.662;2023-04-01T03:38:19;0.77;;;0.53;;
11646;SDS011;5880;52.342;9.662;2023-04-01T03:40:45;0.50;;;0.47;;
11646;SDS011;5880;52.342;9.662;2023-04-01T03:43:10;0.60;;;0.60;;
11646;SDS011;5880;52.342;9.662;2023-04-01T03:45:43;0.47;;;0.30;;
11646;SDS011;5880;52.342;9.662;2023-04-01T03:48:11;0.50;;;0.50;;
11646;SDS011;5880;52.342;9.662;2023-04-01T03:50:37;1.33;;;0.40;;
11646;SDS011;5880;52.342;9.662;2023-04-01T03:53:02;0.50;;;0.50;;
11646;SDS011;5880;52.342;9.662;2023-04-01T03:55:28;0.70;;;0.40;;
11646;SDS011;5880;52.342;9.662;2023-04-01T03:57:53;0.63;;;0.50;;
11646;SDS011;5880;52.342;9.662;2023-04-01T04:00:22;1.53;;;0.40;;
11646;SDS011;5880;52.342;9.662;2023-04-01T04:02:48;1.00;;;0.57;;
11646;SDS011;5880;52.342;9.662;2023-04-01T04:05:14;1.30;;;0.50;;
11646;SDS011;5880;52.342;9.662;2023-04-01T04:07:40;0.80;;;0.50;;
11646;SDS011;5880;52.342;9.662;2023-04-01T04:10:05;1.07;;;0.50;;
11646;SDS011;5880;52.342;9.662;2023-04-01T04:12:32;1.87;;;0.50;;
11646;SDS011;5880;52.342;9.662;2023-04-01T04:14:57;0.60;;;0.30;;
11646;SDS011;5880;52.342;9.662;2023-04-01T04:17:23;0.57;;;0.50;;
11646;SDS011;5880;52.342;9.662;2023-04-01T04:19:49;0.77;;;0.40;;
11646;SDS011;5880;52.342;9.662;2023-04-01T04:22:14;0.53;;;0.30;;
11646;SDS011;5880;52.342;9.662;2023-04-01T04:24:40;0.43;;;0.43;;
11646;SDS011;5880;52.342;9.662;2023-04-01T04:27:06;0.60;;;0.60;;
11646;SDS011;5880;52.342;9.662;2023-04-01T04:29:31;0.87;;;0.40;;
11646;SDS011;5880;52.342;9.662;2023-04-01T04:31:57;0.53;;;0.40;;
11646;SDS011;5880;52.342;9.662;2023-04-01T04:34:22;0.87;;;0.50;;
11646;SDS011;5880;52.342;9.662;2023-04-01T04:36:49;0.83;;;0.50;;
11646;SDS011;5880;52.342;9.662;2023-04-01T04:39:15;0.80;;;0.60;;
11646;SDS011;5880;52.342;9.662;2023-04-01T04:41:41;0.40;;;0.40;;
11646;SDS011;5880;52.342;9.662;2023-04-01T04:44:07;1.33;;;0.50;;
11646;SDS011;5880;52.342;9.662;2023-04-01T04:46:33;2.67;;;0.47;;
11646;SDS011;5880;52.342;9.662;2023-04-01T04:48:58;1.10;;;0.40;;
11646;SDS011;5880;52.342;9.662;2023-04-01T04:51:24;1.33;;;0.40;;
11646;SDS011;5880;52.342;9.662;2023-04-01T04:53:50;0.60;;;0.40;;
11646;SDS011;5880;52.342;9.662;2023-04-01T04:56:20;1.07;;;0.40;;
11646;SDS011;5880;52.342;9.662;2023-04-01T04:58:47;0.70;;;0.50;;
11646;SDS011;5880;52.342;9.662;2023-04-01T05:01:14;1.77;;;0.40;;
11646;SDS011;5880;52.342;9.662;2023-04-01T05:03:41;0.87;;;0.60;;
11646;SDS011;5880;52.342;9.662;2023-04-01T05:06:08;1.03;;;0.47;;
11646;SDS011;5880;52.342;9.662;2023-04-01T05:08:36;0.70;;;0.60;;
11646;SDS011;5880;52.342;9.662;2023-04-01T05:11:06;0.80;;;0.80;;
11646;SDS011;5880;52.342;9.662;2023-04-01T05:13:35;1.83;;;0.93;;
11646;SDS011;5880;52.342;9.662;2023-04-01T05:16:01;1.13;;;0.80;;
11646;SDS011;5880;52.342;9.662;2023-04-01T05:18:27;0.57;;;0.57;;
11646;SDS011;5880;52.342;9.662;2023-04-01T05:20:53;1.10;;;0.50;;
11646;SDS011;5880;52.342;9.662;2023-04-01T05:23:21;0.67;;;0.50;;
11646;SDS011;5880;52.342;9.662;2023-04-01T05:25:48;0.87;;;0.40;;
11646;SDS011;5880;52.342;9.662;2023-04-01T05:28:15;0.70;;;0.47;;
11646;SDS011;5880;52.342;9.662;2023-04-01T05:30:42;1.23;;;0.60;;
11646;SDS011;5880;52.342;9.662;2023-04-01T05:33:09;0.83;;;0.70;;
11646;SDS011;5880;52.342;9.662;2023-04-01T05:35:37;1.47;;;0.60;;
11646;SDS011;5880;52.342;9.662;2023-04-01T05:38:04;0.67;;;0.67;;
11646;SDS011;5880;52.342;9.662;2023-04-01T05:40:30;1.70;;;0.90;;
11646;SDS011;5880;52.342;9.662;2023-04-01T05:42:56;1.00;;;0.70;;
11646;SDS011;5880;52.342;9.662;2023-04-01T05:45:23;0.80;;;0.80;;
11646;SDS011;5880;52.342;9.662;2023-04-01T05:47:48;1.17;;;0.97;;
11646;SDS011;5880;52.342;9.662;2023-04-01T05:50:15;1.43;;;0.80;;
11646;SDS011;5880;52.342;9.662;2023-04-01T05:52:41;1.20;;;0.73;;
11646;SDS011;5880;52.342;9.662;2023-04-01T05:55:07;3.63;;;0.80;;
11646;SDS011;5880;52.342;9.662;2023-04-01T05:57:33;1.20;;;0.80;;
11646;SDS011;5880;52.342;9.662;2023-04-01T05:59:59;0.93;;;0.90;;
11646;SDS011;5880;52.342;9.662;2023-04-01T06:02:25;1.90;;;1.07;;
11646;SDS011;5880;52.342;9.662;2023-04-01T06:04:54;1.13;;;1.00;;
11646;SDS011;5880;52.342;9.662;2023-04-01T06:07:37;1.17;;;0.90;;
11646;SDS011;5880;52.342;9.662;2023-04-01T06:10:05;1.27;;;1.00;;
11646;SDS011;5880;52.342;9.662;2023-04-01T06:12:51;1.10;;;0.90;;
11646;SDS011;5880;52.342;9.662;2023-04-01T06:21:30;1.37;;;0.60;;
11646;SDS011;5880;52.342;9.662;2023-04-01T06:27:47;1.47;;;0.73;;
11646;SDS011;5880;52.342;9.662;2023-04-01T06:33:27;0.83;;;0.70;;
11646;SDS011;5880;52.342;9.662;2023-04-01T06:36:15;1.73;;;0.93;;
11646;SDS011;5880;52.342;9.662;2023-04-01T06:51:06;1.17;;;0.57;;
11646;SDS011;5880;52.342;9.662;2023-04-01T06:54:03;1.40;;;0.70;;
11646;SDS011;5880;52.342;9.662;2023-04-01T06:56:50;0.60;;;0.53;;
11646;SDS011;5880;52.342;9.662;2023-04-01T06:59:25;1.87;;;0.80;;
11646;SDS011;5880;52.342;9.662;2023-04-01T07:01:55;0.93;;;0.70;;
11646;SDS011;5880;52.342;9.662;2023-04-01T07:07:14;0.83;;;0.70;;
11646;SDS011;5880;52.342;9.662;2023-04-01T07:10:01;0.70;;;0.70;;
11646;SDS011;5880;52.342;9.662;2023-04-01T07:12:46;2.33;;;0.80;;
11646;SDS011;5880;52.342;9.662;2023-04-01T07:17:52;1.50;;;1.00;;
11646;SDS011;5880;52.342;9.662;2023-04-01T07:20:28;1.43;;;0.83;;
11646;SDS011;5880;52.342;9.662;2023-04-01T07:23:02;1.37;;;0.90;;
11646;SDS011;5880;52.342;9.662;2023-04-01T07:25:36;1.27;;;1.00;;
11646;SDS011;5880;52.342;9.662;2023-04-01T07:28:12;1.77;;;1.00;;
11646;SDS011;5880;52.342;9.662;2023-04-01T07:31:00;1.13;;;0.90;;
11646;SDS011;5880;52.342;9.662;2023-04-01T07:33:50;0.87;;;0.77;;
11646;SDS011;5880;52.342;9.662;2023-04-01T07:36:38;1.90;;;0.80;;
11646;SDS011;5880;52.342;9.662;2023-04-01T07:51:27;1.07;;;0.70;;
11646;SDS011;5880;52.342;9.662;2023-04-01T07:54:19;1.00;;;0.90;;
11646;SDS011;5880;52.342;9.662;2023-04-01T07:59:30;0.90;;;0.80;;
11646;SDS011;5880;52.342;9.662;2023-04-01T08:04:59;0.63;;;0.60;;
11646;SDS011;5880;52.342;9.662;2023-04-01T08:07:52;1.02;;;0.70;;
11646;SDS011;5880;52.342;9.662;2023-04-01T08:10:52;1.27;;;0.80;;
11646;SDS011;5880;52.342;9.662;2023-04-01T08:21:45;0.93;;;0.55;;
11646;SDS011;5880;52.342;9.662;2023-04-01T08:27:12;0.60;;;0.60;;
11646;SDS011;5880;52.342;9.662;2023-04-01T08:30:15;0.75;;;0.57;;
11646;SDS011;5880;52.342;9.662;2023-04-01T08:32:55;0.52;;;0.40;;
11646;SDS011;5880;52.342;9.662;2023-04-01T08:35:47;1.10;;;0.80;;
11646;SDS011;5880;52.342;9.662;2023-04-01T08:44:32;0.98;;;0.60;;
11646;SDS011;5880;52.342;9.662;2023-04-01T09:00:30;0.60;;;0.50;;
11646;SDS011;5880;52.342;9.662;2023-04-01T09:06:42;0.70;;;0.50;;
11646;SDS011;5880;52.342;9.662;2023-04-01T09:09:29;0.40;;;0.40;;
11646;SDS011;5880;52.342;9.662;2023-04-01T09:22:07;0.50;;;0.50;;
11646;SDS011;5880;52.342;9.662;2023-04-01T09:33:38;0.40;;;0.40;;
11646;SDS011;5880;52.342;9.662;2023-04-01T09:36:43;0.53;;;0.43;;
11646;SDS011;5880;52.342;9.662;2023-04-01T09:39:20;1.90;;;0.60;;
11646;SDS011;5880;52.342;9.662;2023-04-01T09:42:14;0.60;;;0.50;;
11646;SDS011;5880;52.342;9.662;2023-04-01T09:45:17;0.77;;;0.50;;
11646;SDS011;5880;52.342;9.662;2023-04-01T09:50:52;0.60;;;0.50;;
11646;SDS011;5880;52.342;9.662;2023-04-01T09:53:46;0.40;;;0.40;;
11646;SDS011;5880;52.342;9.662;2023-04-01T09:56:47;0.80;;;0.43;;
11646;SDS011;5880;52.342;9.662;2023-04-01T10:18:24;0.40;;;0.40;;
11646;SDS011;5880;52.342;9.662;2023-04-01T10:24:50;0.33;;;0.33;;
11646;SDS011;5880;52.342;9.662;2023-04-01T10:27:58;0.77;;;0.40;;
11646;SDS011;5880;52.342;9.662;2023-04-01T10:30:45;0.43;;;0.30;;
11646;SDS011;5880;52.342;9.662;2023-04-01T10:39:37;0.40;;;0.40;;
11646;SDS011;5880;52.342;9.662;2023-04-01T10:49:02;0.40;;;0.40;;
11646;SDS011;5880;52.342;9.662;2023-04-01T10:52:06;0.47;;;0.45;;
11646;SDS011;5880;52.342;9.662;2023-04-01T10:58:25;0.40;;;0.40;;
11646;SDS011;5880;52.342;9.662;2023-04-01T11:04:46;0.30;;;0.30;;
11646;SDS011;5880;52.342;9.662;2023-04-01T11:26:28;0.80;;;0.60;;
11646;SDS011;5880;52.342;9.662;2023-04-01T11:41:54;0.40;;;0.40;;
11646;SDS011;5880;52.342;9.662;2023-04-01T11:44:47;2.63;;;0.70;;
11646;SDS011;5880;52.342;9.662;2023-04-01T11:47:56;0.60;;;0.60;;
11646;SDS011;5880;52.342;9.662;2023-04-01T11:50:31;0.43;;;0.43;;
11646;SDS011;5880;52.342;9.662;2023-04-01T11:53:15;0.50;;;0.50;;
11646;SDS011;5880;52.342;9.662;2023-04-01T11:59:38;0.95;;;0.95;;
11646;SDS011;5880;52.342;9.662;2023-04-01T12:02:48;1.52;;;1.10;;
11646;SDS011;5880;52.342;9.662;2023-04-01T12:05:54;0.77;;;0.77;;
11646;SDS011;5880;52.342;9.662;2023-04-01T12:09:01;0.60;;;0.60;;
11646;SDS011;5880;52.342;9.662;2023-04-01T12:11:52;0.60;;;0.60;;
11646;SDS011;5880;52.342;9.662;2023-04-01T12:15:00;0.85;;;0.70;;
11646;SDS011;5880;52.342;9.662;2023-04-01T12:17:54;0.60;;;0.60;;
11646;SDS011;5880;52.342;9.662;2023-04-01T12:21:17;0.50;;;0.50;;
11646;SDS011;5880;52.342;9.662;2023-04-01T12:24:20;0.80;;;0.80;;
11646;SDS011;5880;52.342;9.662;2023-04-01T12:27:05;0.60;;;0.60;;
11646;SDS011;5880;52.342;9.662;2023-04-01T12:30:14;0.80;;;0.80;;
11646;SDS011;5880;52.342;9.662;2023-04-01T12:33:02;0.60;;;0.60;;
11646;SDS011;5880;52.342;9.662;2023-04-01T12:36:10;0.70;;;0.60;;
11646;SDS011;5880;52.342;9.662;2023-04-01T12:39:02;0.50;;;0.50;;
11646;SDS011;5880;52.342;9.662;2023-04-01T12:45:34;0.60;;;0.60;;
11646;SDS011;5880;52.342;9.662;2023-04-01T12:48:23;0.60;;;0.60;;
11646;SDS011;5880;52.342;9.662;2023-04-01T12:54:25;0.50;;;0.43;;
11646;SDS011;5880;52.342;9.662;2023-04-01T13:03:11;0.50;;;0.50;;
11646;SDS011;5880;52.342;9.662;2023-04-01T13:15:35;1.00;;;0.60;;
11646;SDS011;5880;52.342;9.662;2023-04-01T13:18:52;1.10;;;0.80;;
11646;SDS011;5880;52.342;9.662;2023-04-01T13:22:03;0.80;;;0.80;;
11646;SDS011;5880;52.342;9.662;2023-04-01T13:24:49;0.80;;;0.70;;
11646;SDS011;5880;52.342;9.662;2023-04-01T13:27:36;0.80;;;0.80;;
11646;SDS011;5880;52.342;9.662;2023-04-01T13:33:17;1.47;;;0.80;;
11646;SDS011;5880;52.342;9.662;2023-04-01T13:36:19;1.07;;;0.73;;
11646;SDS011;5880;52.342;9.662;2023-04-01T13:39:02;0.70;;;0.50;;
11646;SDS011;5880;52.342;9.662;2023-04-01T13:41:52;0.70;;;0.70;;
11646;SDS011;5880;52.342;9.662;2023-04-01T13:44:47;0.60;;;0.60;;
11646;SDS011;5880;52.342;9.662;2023-04-01T13:47:29;0.90;;;0.60;;
11646;SDS011;5880;52.342;9.662;2023-04-01T14:05:56;1.43;;;1.20;;
11646;SDS011;5880;52.342;9.662;2023-04-01T14:14:21;2.10;;;1.90;;
11646;SDS011;5880;52.342;9.662;2023-04-01T14:20:45;1.60;;;1.50;;
11646;SDS011;5880;52.342;9.662;2023-04-01T14:23:37;2.07;;;1.87;;
11646;SDS011;5880;52.342;9.662;2023-04-01T14:29:34;1.37;;;1.27;;
11646;SDS011;5880;52.342;9.662;2023-04-01T14:35:41;1.30;;;1.20;;
11646;SDS011;5880;52.342;9.662;2023-04-01T14:39:09;1.30;;;1.20;;
11646;SDS011;5880;52.342;9.662;2023-04-01T14:42:12;2.37;;;1.30;;
11646;SDS011;5880;52.342;9.662;2023-04-01T14:45:07;1.63;;;1.33;;
11646;SDS011;5880;52.342;9.662;2023-04-01T14:54:02;1.50;;;1.30;;
11646;SDS011;5880;52.342;9.662;2023-04-01T15:01:57;0.90;;;0.90;;
11646;SDS011;5880;52.342;9.662;2023-04-01T15:13:48;1.00;;;0.87;;
11646;SDS011;5880;52.342;9.662;2023-04-01T15:16:33;1.80;;;0.90;;
11646;SDS011;5880;52.342;9.662;2023-04-01T15:28:48;1.23;;;0.90;;
11646;SDS011;5880;52.342;9.662;2023-04-01T15:34:28;1.10;;;1.00;;
11646;SDS011;5880;52.342;9.662;2023-04-01T15:37:16;1.00;;;0.80;;
11646;SDS011;5880;52.342;9.662;2023-04-01T15:40:02;1.10;;;1.00;;
11646;SDS011;5880;52.342;9.662;2023-04-01T15:45:33;0.77;;;0.70;;
11646;SDS011;5880;52.342;9.662;2023-04-01T15:48:23;0.70;;;0.70;;
11646;SDS011;5880;52.342;9.662;2023-04-01T15:51:21;0.93;;;0.70;;
11646;SDS011;5880;52.342;9.662;2023-04-01T15:57:32;0.70;;;0.70;;
11646;SDS011;5880;52.342;9.662;2023-04-01T16:00:29;0.90;;;0.90;;
11646;SDS011;5880;52.342;9.662;2023-04-01T16:15:00;2.00;;;1.30;;
11646;SDS011;5880;52.342;9.662;2023-04-01T16:23:37;0.80;;;0.80;;
11646;SDS011;5880;52.342;9.662;2023-04-01T16:26:36;1.00;;;0.90;;
11646;SDS011;5880;52.342;9.662;2023-04-01T16:31:48;1.30;;;0.90;;
11646;SDS011;5880;52.342;9.662;2023-04-01T16:34:38;1.40;;;1.30;;
11646;SDS011;5880;52.342;9.662;2023-04-01T16:37:52;1.30;;;1.10;;
11646;SDS011;5880;52.342;9.662;2023-04-01T16:51:48;1.20;;;1.10;;
11646;SDS011;5880;52.342;9.662;2023-04-01T16:57:25;0.83;;;0.83;;
11646;SDS011;5880;52.342;9.662;2023-04-01T17:00:19;1.30;;;1.20;;
11646;SDS011;5880;52.342;9.662;2023-04-01T17:08:28;2.30;;;1.40;;
11646;SDS011;5880;52.342;9.662;2023-04-01T17:11:16;2.30;;;1.17;;
11646;SDS011;5880;52.342;9.662;2023-04-01T17:17:17;1.10;;;1.00;;
11646;SDS011;5880;52.342;9.662;2023-04-01T17:20:25;1.23;;;0.70;;
11646;SDS011;5880;52.342;9.662;2023-04-01T17:25:48;2.00;;;1.10;;
11646;SDS011;5880;52.342;9.662;2023-04-01T17:39:54;1.23;;;1.13;;
11646;SDS011;5880;52.342;9.662;2023-04-01T17:43:20;1.40;;;1.30;;
11646;SDS011;5880;52.342;9.662;2023-04-01T17:46:32;1.63;;;1.40;;
11646;SDS011;5880;52.342;9.662;2023-04-01T17:58:59;2.00;;;1.80;;
11646;SDS011;5880;52.342;9.662;2023-04-01T18:07:19;1.70;;;1.60;;
11646;SDS011;5880;52.342;9.662;2023-04-01T18:10:08;1.63;;;1.53;;
11646;SDS011;5880;52.342;9.662;2023-04-01T18:16:18;1.93;;;1.70;;
11646;SDS011;5880;52.342;9.662;2023-04-01T18:19:21;2.20;;;1.70;;
11646;SDS011;5880;52.342;9.662;2023-04-01T18:22:19;1.50;;;1.40;;
11646;SDS011;5880;52.342;9.662;2023-04-01T18:24:58;2.03;;;1.43;;
11646;SDS011;5880;52.342;9.662;2023-04-01T18:27:36;1.60;;;1.50;;
11646;SDS011;5880;52.342;9.662;2023-04-01T18:30:20;2.27;;;1.63;;
11646;SDS011;5880;52.342;9.662;2023-04-01T18:38:45;2.33;;;1.77;;
11646;SDS011;5880;52.342;9.662;2023-04-01T18:41:38;1.67;;;1.50;;
11646;SDS011;5880;52.342;9.662;2023-04-01T18:44:18;1.40;;;1.30;;
11646;SDS011;5880;52.342;9.662;2023-04-01T18:46:59;1.90;;;1.60;;
11646;SDS011;5880;52.342;9.662;2023-04-01T18:50:13;1.53;;;1.43;;
11646;SDS011;5880;52.342;9.662;2023-04-01T18:55:51;1.60;;;1.17;;
11646;SDS011;5880;52.342;9.662;2023-04-01T19:01:11;1.30;;;1.20;;
11646;SDS011;5880;52.342;9.662;2023-04-01T19:06:57;1.47;;;1.30;;
11646;SDS011;5880;52.342;9.662;2023-04-01T19:09:29;1.50;;;1.30;;
11646;SDS011;5880;52.342;9.662;2023-04-01T19:15:22;3.23;;;1.87;;
11646;SDS011;5880;52.342;9.662;2023-04-01T19:18:16;1.80;;;1.70;;
11646;SDS011;5880;52.342;9.662;2023-04-01T19:24:08;2.80;;;1.90;;
11646;SDS011;5880;52.342;9.662;2023-04-01T19:36:38;1.70;;;1.60;;
11646;SDS011;5880;52.342;9.662;2023-04-01T19:39:36;2.30;;;1.50;;
11646;SDS011;5880;52.342;9.662;2023-04-01T19:45:40;1.93;;;1.50;;
11646;SDS011;5880;52.342;9.662;2023-04-01T19:48:23;2.53;;;1.60;;
11646;SDS011;5880;52.342;9.662;2023-04-01T19:57:14;2.27;;;1.60;;
11646;SDS011;5880;52.342;9.662;2023-04-01T19:59:55;1.73;;;1.63;;
11646;SDS011;5880;52.342;9.662;2023-04-01T20:11:03;1.53;;;1.43;;
11646;SDS011;5880;52.342;9.662;2023-04-01T20:14:01;2.70;;;1.67;;
11646;SDS011;5880;52.342;9.662;2023-04-01T20:19:28;3.37;;;2.00;;
11646;SDS011;5880;52.342;9.662;2023-04-01T20:22:23;2.03;;;1.83;;
11646;SDS011;5880;52.342;9.662;2023-04-01T20:25:05;3.83;;;2.07;;
11646;SDS011;5880;52.342;9.662;2023-04-01T20:28:01;1.90;;;1.70;;
11646;SDS011;5880;52.342;9.662;2023-04-01T20:33:22;1.93;;;1.60;;
11646;SDS011;5880;52.342;9.662;2023-04-01T20:48:10;3.33;;;2.30;;
11646;SDS011;5880;52.342;9.662;2023-04-01T20:51:06;4.03;;;2.27;;
11646;SDS011;5880;52.342;9.662;2023-04-01T21:03:12;3.40;;;2.90;;
11646;SDS011;5880;52.342;9.662;2023-04-01T21:12:40;3.10;;;2.70;;
11646;SDS011;5880;52.342;9.662;2023-04-01T21:20:32;3.77;;;2.73;;
11646;SDS011;5880;52.342;9.662;2023-04-01T21:23:37;4.87;;;3.10;;
11646;SDS011;5880;52.342;9.662;2023-04-01T21:38:06;3.17;;;2.83;;
11646;SDS011;5880;52.342;9.662;2023-04-01T21:47:01;4.10;;;3.00;;
11646;SDS011;5880;52.342;9.662;2023-04-01T21:49:58;3.20;;;2.90;;
11646;SDS011;5880;52.342;9.662;2023-04-01T22:02:47;2.60;;;2.40;;
11646;SDS011;5880;52.342;9.662;2023-04-01T22:05:12;4.63;;;3.07;;
11646;SDS011;5880;52.342;9.662;2023-04-01T22:13:35;3.70;;;2.80;;
11646;SDS011;5880;52.342;9.662;2023-04-01T22:16:13;3.70;;;2.90;;
11646;SDS011;5880;52.342;9.662;2023-04-01T22:19:23;3.23;;;2.50;;
11646;SDS011;5880;52.342;9.662;2023-04-01T22:22:18;4.20;;;3.37;;
11646;SDS011;5880;52.342;9.662;2023-04-01T22:24:58;4.37;;;2.70;;
11646;SDS011;5880;52.342;9.662;2023-04-01T22:27:51;4.20;;;2.83;;
11646;SDS011;5880;52.342;9.662;2023-04-01T22:33:05;3.97;;;2.57;;
11646;SDS011;5880;52.342;9.662;2023-04-01T22:35:52;3.90;;;2.87;;
11646;SDS011;5880;52.342;9.662;2023-04-01T22:41:27;4.53;;;3.67;;
11646;SDS011;5880;52.342;9.662;2023-04-01T22:44:27;4.97;;;3.67;;
11646;SDS011;5880;52.342;9.662;2023-04-01T22:47:20;4.87;;;3.30;;
11646;SDS011;5880;52.342;9.662;2023-04-01T22:50:28;7.00;;;3.90;;
11646;SDS011;5880;52.342;9.662;2023-04-01T22:55:38;5.30;;;3.30;;
11646;SDS011;5880;52.342;9.662;2023-04-01T22:58:09;4.77;;;3.77;;
11646;SDS011;5880;52.342;9.662;2023-04-01T23:00:47;5.83;;;4.03;;
11646;SDS011;5880;52.342;9.662;2023-04-01T23:03:21;6.93;;;3.53;;
11646;SDS011;5880;52.342;9.662;2023-04-01T23:05:56;5.53;;;3.20;;
11646;SDS011;5880;52.342;9.662;2023-04-01T23:11:10;4.40;;;3.00;;
11646;SDS011;5880;52.342;9.662;2023-04-01T23:13:46;3.67;;;3.07;;
11646;SDS011;5880;52.342;9.662;2023-04-01T23:16:39;4.97;;;3.23;;
11646;SDS011;5880;52.342;9.662;2023-04-01T23:19:12;4.00;;;3.23;;
11646;SDS011;5880;52.342;9.662;2023-04-01T23:21:52;4.50;;;3.00;;
11646;SDS011;5880;52.342;9.662;2023-04-01T23:24:36;7.37;;;4.37;;
11646;SDS011;5880;52.342;9.662;2023-04-01T23:27:19;4.80;;;3.77;;
11646;SDS011;5880;52.342;9.662;2023-04-01T23:30:03;3.87;;;3.47;;
11646;SDS011;5880;52.342;9.662;2023-04-01T23:35:56;5.03;;;3.30;;
11646;SDS011;5880;52.342;9.662;2023-04-01T23:38:30;5.13;;;3.50;;
11646;SDS011;5880;52.342;9.662;2023-04-01T23:41:00;4.43;;;3.40;;
11646;SDS011;5880;52.342;9.662;2023-04-01T23:43:28;5.33;;;3.80;;
11646;SDS011;5880;52.342;9.662;2023-04-01T23:45:58;7.43;;;4.73;;
11646;SDS011;5880;52.342;9.662;2023-04-01T23:48:39;7.50;;;4.60;;
11646;SDS011;5880;52.342;9.662;2023-04-01T23:51:28;7.07;;;4.43;;
11646;SDS011;5880;52.342;9.662;2023-04-01T23:54:11;8.43;;;4.37;;
11646;SDS011;5880;52.342;9.662;2023-04-01T23:56:45;6.23;;;3.90;;
11646;SDS011;5880;52.342;9.662;2023-04-01T23:59:17;8.23;;;4.20;;
